Lincoln, Alabama
Current Conditions -  °F | °C
As of 7:35 AM on Friday 19 Dec 2014 (Local Time) from KASN Reporting Station
Clear Clear  
Wind Chill: 32°   Ceiling: Unl
Heat Index: 32°   Visibility: 7mi
Dew Point: 31°   Wind: 0mph
Humidity: 95%   Direction: NA
Pressure: 30.22"   Gusts: NA
Location:  33.61°N, 86.12°W
Report Text: KASN 191335Z AUTO 00000KT 7SM CLR 00/00 A3022 RMK AO2 T00021005
Loading
Personal Weather Stations






























Interactive Weather Map New forecast layout! Learn more

10-Day Weather Forecast

Advertisements
Track Severe Weather on mobile